sensor_id;sensor_type;location;lat;lon;timestamp;temperature;humidity
25302;DHT22;13243;50.888;4.724;2023-05-18T00:04:45;10.60;99.90
25302;DHT22;13243;50.888;4.724;2023-05-18T00:09:47;10.50;99.90
25302;DHT22;13243;50.888;4.724;2023-05-18T00:14:49;10.30;99.90
25302;DHT22;13243;50.888;4.724;2023-05-18T00:19:51;10.20;99.90
25302;DHT22;13243;50.888;4.724;2023-05-18T00:24:53;10.10;99.90
25302;DHT22;13243;50.888;4.724;2023-05-18T00:29:55;9.90;99.90
25302;DHT22;13243;50.888;4.724;2023-05-18T00:34:57;9.90;99.90
25302;DHT22;13243;50.888;4.724;2023-05-18T00:39:59;9.80;99.90
25302;DHT22;13243;50.888;4.724;2023-05-18T00:45:01;9.60;99.90
25302;DHT22;13243;50.888;4.724;2023-05-18T00:50:04;9.70;99.90
25302;DHT22;13243;50.888;4.724;2023-05-18T00:55:08;9.60;99.90
25302;DHT22;13243;50.888;4.724;2023-05-18T01:00:14;9.40;99.90
25302;DHT22;13243;50.888;4.724;2023-05-18T01:05:16;9.40;99.90
25302;DHT22;13243;50.888;4.724;2023-05-18T01:10:19;9.50;99.90
25302;DHT22;13243;50.888;4.724;2023-05-18T01:15:36;9.60;99.90
25302;DHT22;13243;50.888;4.724;2023-05-18T01:31:00;9.30;99.90
25302;DHT22;13243;50.888;4.724;2023-05-18T01:36:03;9.30;99.90
25302;DHT22;13243;50.888;4.724;2023-05-18T01:41:19;9.20;99.90
25302;DHT22;13243;50.888;4.724;2023-05-18T01:46:39;9.10;99.90
25302;DHT22;13243;50.888;4.724;2023-05-18T01:51:45;9.20;99.90
25302;DHT22;13243;50.888;4.724;2023-05-18T01:56:48;9.50;99.90
25302;DHT22;13243;50.888;4.724;2023-05-18T02:01:51;9.40;99.90
25302;DHT22;13243;50.888;4.724;2023-05-18T02:07:01;9.40;99.90
25302;DHT22;13243;50.888;4.724;2023-05-18T02:12:04;9.10;99.90
25302;DHT22;13243;50.888;4.724;2023-05-18T02:17:06;9.10;99.90
25302;DHT22;13243;50.888;4.724;2023-05-18T02:22:08;9.10;99.90
25302;DHT22;13243;50.888;4.724;2023-05-18T02:27:10;9.10;99.90
25302;DHT22;13243;50.888;4.724;2023-05-18T02:32:15;8.90;99.90
25302;DHT22;13243;50.888;4.724;2023-05-18T02:37:17;9.20;99.90
25302;DHT22;13243;50.888;4.724;2023-05-18T02:42:19;9.10;99.90
25302;DHT22;13243;50.888;4.724;2023-05-18T02:47:22;8.90;99.90
25302;DHT22;13243;50.888;4.724;2023-05-18T02:52:24;8.90;99.90
25302;DHT22;13243;50.888;4.724;2023-05-18T02:57:26;8.90;99.90
25302;DHT22;13243;50.888;4.724;2023-05-18T03:02:28;8.80;99.90
25302;DHT22;13243;50.888;4.724;2023-05-18T03:07:30;8.60;99.90
25302;DHT22;13243;50.888;4.724;2023-05-18T03:12:34;8.50;99.90
25302;DHT22;13243;50.888;4.724;2023-05-18T03:17:36;8.50;99.90
25302;DHT22;13243;50.888;4.724;2023-05-18T03:22:38;8.50;99.90
25302;DHT22;13243;50.888;4.724;2023-05-18T03:27:40;8.60;99.90
25302;DHT22;13243;50.888;4.724;2023-05-18T03:32:42;8.50;99.90
25302;DHT22;13243;50.888;4.724;2023-05-18T03:37:44;8.60;99.90
25302;DHT22;13243;50.888;4.724;2023-05-18T03:42:46;8.60;99.90
25302;DHT22;13243;50.888;4.724;2023-05-18T03:47:49;8.50;99.90
25302;DHT22;13243;50.888;4.724;2023-05-18T03:52:51;8.30;99.90
25302;DHT22;13243;50.888;4.724;2023-05-18T03:57:53;8.40;99.90
25302;DHT22;13243;50.888;4.724;2023-05-18T04:02:55;8.30;99.90
25302;DHT22;13243;50.888;4.724;2023-05-18T04:07:57;8.50;99.90
25302;DHT22;13243;50.888;4.724;2023-05-18T04:12:59;8.40;99.90
25302;DHT22;13243;50.888;4.724;2023-05-18T04:18:01;8.20;99.90
25302;DHT22;13243;50.888;4.724;2023-05-18T04:23:03;8.30;99.90
25302;DHT22;13243;50.888;4.724;2023-05-18T04:28:06;8.20;99.90
25302;DHT22;13243;50.888;4.724;2023-05-18T04:33:08;8.40;99.90
25302;DHT22;13243;50.888;4.724;2023-05-18T04:38:12;8.50;99.90
25302;DHT22;13243;50.888;4.724;2023-05-18T04:43:20;8.50;99.90
25302;DHT22;13243;50.888;4.724;2023-05-18T04:48:23;8.50;99.90
25302;DHT22;13243;50.888;4.724;2023-05-18T04:53:26;8.50;99.90
25302;DHT22;13243;50.888;4.724;2023-05-18T04:58:28;8.60;99.90
25302;DHT22;13243;50.888;4.724;2023-05-18T05:03:31;8.80;99.90
25302;DHT22;13243;50.888;4.724;2023-05-18T05:08:33;8.90;99.90
25302;DHT22;13243;50.888;4.724;2023-05-18T05:13:35;8.90;99.90
25302;DHT22;13243;50.888;4.724;2023-05-18T05:18:37;8.90;99.90
25302;DHT22;13243;50.888;4.724;2023-05-18T05:23:40;9.00;99.90
25302;DHT22;13243;50.888;4.724;2023-05-18T05:28:42;9.00;99.90
25302;DHT22;13243;50.888;4.724;2023-05-18T05:33:44;9.10;99.90
25302;DHT22;13243;50.888;4.724;2023-05-18T05:38:46;9.20;99.90
25302;DHT22;13243;50.888;4.724;2023-05-18T05:43:48;9.20;99.90
25302;DHT22;13243;50.888;4.724;2023-05-18T05:48:50;9.30;99.90
25302;DHT22;13243;50.888;4.724;2023-05-18T05:53:51;9.30;99.90
25302;DHT22;13243;50.888;4.724;2023-05-18T05:58:53;9.50;99.90
25302;DHT22;13243;50.888;4.724;2023-05-18T06:03:55;9.50;99.90
25302;DHT22;13243;50.888;4.724;2023-05-18T06:08:57;9.50;99.90
25302;DHT22;13243;50.888;4.724;2023-05-18T06:13:59;9.70;99.90
25302;DHT22;13243;50.888;4.724;2023-05-18T06:19:01;10.00;99.90
25302;DHT22;13243;50.888;4.724;2023-05-18T06:24:04;10.30;99.90
25302;DHT22;13243;50.888;4.724;2023-05-18T06:29:06;10.50;99.90
25302;DHT22;13243;50.888;4.724;2023-05-18T06:34:09;10.50;99.90
25302;DHT22;13243;50.888;4.724;2023-05-18T06:39:11;10.70;99.90
25302;DHT22;13243;50.888;4.724;2023-05-18T06:44:13;10.90;99.90
25302;DHT22;13243;50.888;4.724;2023-05-18T06:49:15;10.90;99.90
25302;DHT22;13243;50.888;4.724;2023-05-18T06:54:17;11.10;99.90
25302;DHT22;13243;50.888;4.724;2023-05-18T06:59:19;11.30;99.90
25302;DHT22;13243;50.888;4.724;2023-05-18T07:04:20;11.30;99.90
25302;DHT22;13243;50.888;4.724;2023-05-18T07:09:23;11.10;99.90
25302;DHT22;13243;50.888;4.724;2023-05-18T07:14:26;11.10;99.90
25302;DHT22;13243;50.888;4.724;2023-05-18T07:19:28;11.20;99.90
25302;DHT22;13243;50.888;4.724;2023-05-18T07:24:30;11.50;99.90
25302;DHT22;13243;50.888;4.724;2023-05-18T07:29:32;11.70;99.90
25302;DHT22;13243;50.888;4.724;2023-05-18T07:34:33;11.50;99.90
25302;DHT22;13243;50.888;4.724;2023-05-18T07:39:36;11.90;99.90
25302;DHT22;13243;50.888;4.724;2023-05-18T07:44:39;11.90;99.90
25302;DHT22;13243;50.888;4.724;2023-05-18T07:49:41;12.10;99.90
25302;DHT22;13243;50.888;4.724;2023-05-18T07:54:43;12.30;99.90
25302;DHT22;13243;50.888;4.724;2023-05-18T07:59:45;12.10;99.90
25302;DHT22;13243;50.888;4.724;2023-05-18T08:04:47;12.20;99.90
25302;DHT22;13243;50.888;4.724;2023-05-18T08:09:49;12.30;99.90
25302;DHT22;13243;50.888;4.724;2023-05-18T08:14:51;12.30;99.90
25302;DHT22;13243;50.888;4.724;2023-05-18T08:19:53;12.40;99.90
25302;DHT22;13243;50.888;4.724;2023-05-18T08:24:55;12.40;99.90
25302;DHT22;13243;50.888;4.724;2023-05-18T08:30:01;12.50;99.90
25302;DHT22;13243;50.888;4.724;2023-05-18T08:35:04;12.70;99.90
25302;DHT22;13243;50.888;4.724;2023-05-18T08:40:06;12.90;99.90
25302;DHT22;13243;50.888;4.724;2023-05-18T08:45:31;12.90;99.90
25302;DHT22;13243;50.888;4.724;2023-05-18T08:50:37;13.30;99.90
25302;DHT22;13243;50.888;4.724;2023-05-18T08:55:44;13.40;99.90
25302;DHT22;13243;50.888;4.724;2023-05-18T09:00:46;13.50;99.90
25302;DHT22;13243;50.888;4.724;2023-05-18T09:05:55;13.90;99.90
25302;DHT22;13243;50.888;4.724;2023-05-18T09:11:00;13.50;99.90
25302;DHT22;13243;50.888;4.724;2023-05-18T09:16:02;13.40;99.90
25302;DHT22;13243;50.888;4.724;2023-05-18T09:21:05;13.60;99.90
25302;DHT22;13243;50.888;4.724;2023-05-18T09:26:07;13.80;99.90
25302;DHT22;13243;50.888;4.724;2023-05-18T09:31:16;13.80;99.90
25302;DHT22;13243;50.888;4.724;2023-05-18T09:36:24;14.20;99.90
25302;DHT22;13243;50.888;4.724;2023-05-18T09:41:26;14.70;99.90
25302;DHT22;13243;50.888;4.724;2023-05-18T09:46:31;15.20;99.90
25302;DHT22;13243;50.888;4.724;2023-05-18T09:51:36;15.40;99.90
25302;DHT22;13243;50.888;4.724;2023-05-18T09:56:38;15.50;99.90
25302;DHT22;13243;50.888;4.724;2023-05-18T10:01:58;15.70;99.90
25302;DHT22;13243;50.888;4.724;2023-05-18T10:07:14;15.50;99.90
25302;DHT22;13243;50.888;4.724;2023-05-18T10:12:17;15.60;99.90
25302;DHT22;13243;50.888;4.724;2023-05-18T10:17:23;16.10;99.90
25302;DHT22;13243;50.888;4.724;2023-05-18T10:22:27;16.00;99.90
25302;DHT22;13243;50.888;4.724;2023-05-18T10:27:34;16.20;99.90
25302;DHT22;13243;50.888;4.724;2023-05-18T10:32:37;16.70;99.90
25302;DHT22;13243;50.888;4.724;2023-05-18T10:37:43;16.80;99.90
25302;DHT22;13243;50.888;4.724;2023-05-18T10:42:49;17.00;99.90
25302;DHT22;13243;50.888;4.724;2023-05-18T10:47:52;16.90;99.90
25302;DHT22;13243;50.888;4.724;2023-05-18T10:52:58;17.50;99.90
25302;DHT22;13243;50.888;4.724;2023-05-18T10:58:08;17.20;99.90
25302;DHT22;13243;50.888;4.724;2023-05-18T11:03:13;17.20;99.90
25302;DHT22;13243;50.888;4.724;2023-05-18T11:08:24;17.50;99.90
25302;DHT22;13243;50.888;4.724;2023-05-18T11:13:28;17.70;99.90
25302;DHT22;13243;50.888;4.724;2023-05-18T11:23:37;17.80;99.90
25302;DHT22;13243;50.888;4.724;2023-05-18T11:28:42;18.00;99.90
25302;DHT22;13243;50.888;4.724;2023-05-18T11:33:45;18.50;99.90
25302;DHT22;13243;50.888;4.724;2023-05-18T11:39:01;18.50;99.90
25302;DHT22;13243;50.888;4.724;2023-05-18T11:49:21;18.00;99.90
25302;DHT22;13243;50.888;4.724;2023-05-18T11:54:24;18.00;99.90
25302;DHT22;13243;50.888;4.724;2023-05-18T11:59:40;18.20;99.90
25302;DHT22;13243;50.888;4.724;2023-05-18T12:04:53;17.90;99.90
25302;DHT22;13243;50.888;4.724;2023-05-18T12:10:05;18.10;99.90
25302;DHT22;13243;50.888;4.724;2023-05-18T12:15:09;18.20;99.90
25302;DHT22;13243;50.888;4.724;2023-05-18T12:20:16;17.70;99.90
25302;DHT22;13243;50.888;4.724;2023-05-18T12:25:19;17.80;99.90
25302;DHT22;13243;50.888;4.724;2023-05-18T12:30:24;17.80;99.90
25302;DHT22;13243;50.888;4.724;2023-05-18T12:35:28;17.70;99.90
25302;DHT22;13243;50.888;4.724;2023-05-18T12:40:35;17.70;99.90
25302;DHT22;13243;50.888;4.724;2023-05-18T12:45:43;18.10;99.90
25302;DHT22;13243;50.888;4.724;2023-05-18T12:50:47;18.60;99.90
25302;DHT22;13243;50.888;4.724;2023-05-18T12:55:56;18.80;99.90
25302;DHT22;13243;50.888;4.724;2023-05-18T13:01:06;19.10;99.90
25302;DHT22;13243;50.888;4.724;2023-05-18T13:06:09;19.10;99.90
25302;DHT22;13243;50.888;4.724;2023-05-18T13:11:12;19.60;99.90
25302;DHT22;13243;50.888;4.724;2023-05-18T13:16:16;20.10;99.90
25302;DHT22;13243;50.888;4.724;2023-05-18T13:21:18;20.00;99.90
25302;DHT22;13243;50.888;4.724;2023-05-18T13:26:21;20.10;99.90
25302;DHT22;13243;50.888;4.724;2023-05-18T13:31:23;20.50;99.90
25302;DHT22;13243;50.888;4.724;2023-05-18T13:36:26;20.10;99.90
25302;DHT22;13243;50.888;4.724;2023-05-18T13:41:33;20.50;99.90
25302;DHT22;13243;50.888;4.724;2023-05-18T13:46:37;19.80;99.90
25302;DHT22;13243;50.888;4.724;2023-05-18T13:51:39;20.90;99.90
25302;DHT22;13243;50.888;4.724;2023-05-18T13:56:41;20.70;99.90
25302;DHT22;13243;50.888;4.724;2023-05-18T14:01:43;21.50;99.90
25302;DHT22;13243;50.888;4.724;2023-05-18T14:06:45;21.40;99.90
25302;DHT22;13243;50.888;4.724;2023-05-18T14:11:47;21.90;99.90
25302;DHT22;13243;50.888;4.724;2023-05-18T14:16:49;22.10;99.90
25302;DHT22;13243;50.888;4.724;2023-05-18T14:21:51;22.20;99.90
25302;DHT22;13243;50.888;4.724;2023-05-18T14:26:53;22.20;99.90
25302;DHT22;13243;50.888;4.724;2023-05-18T14:31:55;22.20;99.90
25302;DHT22;13243;50.888;4.724;2023-05-18T14:36:57;22.90;99.90
25302;DHT22;13243;50.888;4.724;2023-05-18T14:41:59;23.10;99.90
25302;DHT22;13243;50.888;4.724;2023-05-18T14:47:00;22.90;99.90
25302;DHT22;13243;50.888;4.724;2023-05-18T14:52:03;22.20;99.90
25302;DHT22;13243;50.888;4.724;2023-05-18T14:57:05;21.30;99.90
25302;DHT22;13243;50.888;4.724;2023-05-18T15:02:07;21.90;99.90
25302;DHT22;13243;50.888;4.724;2023-05-18T15:07:09;22.70;99.90
25302;DHT22;13243;50.888;4.724;2023-05-18T15:12:11;22.80;99.90
25302;DHT22;13243;50.888;4.724;2023-05-18T15:17:13;22.30;99.90
25302;DHT22;13243;50.888;4.724;2023-05-18T15:22:15;23.20;99.90
25302;DHT22;13243;50.888;4.724;2023-05-18T15:27:17;23.50;99.90
25302;DHT22;13243;50.888;4.724;2023-05-18T15:32:19;23.20;99.90
25302;DHT22;13243;50.888;4.724;2023-05-18T15:37:21;24.00;99.90
25302;DHT22;13243;50.888;4.724;2023-05-18T15:42:23;23.50;99.90
25302;DHT22;13243;50.888;4.724;2023-05-18T15:47:25;23.30;99.90
25302;DHT22;13243;50.888;4.724;2023-05-18T15:52:27;23.30;99.90
25302;DHT22;13243;50.888;4.724;2023-05-18T15:57:29;23.10;99.90
25302;DHT22;13243;50.888;4.724;2023-05-18T16:02:31;22.60;99.90
25302;DHT22;13243;50.888;4.724;2023-05-18T16:07:33;22.60;99.90
25302;DHT22;13243;50.888;4.724;2023-05-18T16:12:35;22.50;99.90
25302;DHT22;13243;50.888;4.724;2023-05-18T16:17:37;22.40;99.90
25302;DHT22;13243;50.888;4.724;2023-05-18T16:22:39;22.00;99.90
25302;DHT22;13243;50.888;4.724;2023-05-18T16:27:41;21.80;99.90
25302;DHT22;13243;50.888;4.724;2023-05-18T16:32:43;21.70;99.90
25302;DHT22;13243;50.888;4.724;2023-05-18T16:37:45;22.00;99.90
25302;DHT22;13243;50.888;4.724;2023-05-18T16:42:47;22.50;99.90
25302;DHT22;13243;50.888;4.724;2023-05-18T16:47:49;22.50;99.90
25302;DHT22;13243;50.888;4.724;2023-05-18T16:52:51;22.20;99.90
25302;DHT22;13243;50.888;4.724;2023-05-18T16:57:53;21.80;99.90
25302;DHT22;13243;50.888;4.724;2023-05-18T17:02:55;21.40;99.90
25302;DHT22;13243;50.888;4.724;2023-05-18T17:07:57;21.30;99.90
25302;DHT22;13243;50.888;4.724;2023-05-18T17:12:59;21.00;99.90
25302;DHT22;13243;50.888;4.724;2023-05-18T17:18:01;20.20;99.90
25302;DHT22;13243;50.888;4.724;2023-05-18T17:23:03;20.20;99.90
25302;DHT22;13243;50.888;4.724;2023-05-18T17:28:05;20.30;99.90
25302;DHT22;13243;50.888;4.724;2023-05-18T17:33:07;20.50;99.90
25302;DHT22;13243;50.888;4.724;2023-05-18T17:38:09;20.50;99.90
25302;DHT22;13243;50.888;4.724;2023-05-18T17:43:11;20.20;99.90
25302;DHT22;13243;50.888;4.724;2023-05-18T17:48:13;19.90;99.90
25302;DHT22;13243;50.888;4.724;2023-05-18T17:53:15;19.80;99.90
25302;DHT22;13243;50.888;4.724;2023-05-18T17:58:17;19.50;99.90
25302;DHT22;13243;50.888;4.724;2023-05-18T18:03:19;19.10;99.90
25302;DHT22;13243;50.888;4.724;2023-05-18T18:08:23;19.00;99.90
25302;DHT22;13243;50.888;4.724;2023-05-18T18:13:25;18.80;99.90
25302;DHT22;13243;50.888;4.724;2023-05-18T18:18:27;18.60;99.90
25302;DHT22;13243;50.888;4.724;2023-05-18T18:23:29;18.40;99.90
25302;DHT22;13243;50.888;4.724;2023-05-18T18:28:32;18.30;99.90
25302;DHT22;13243;50.888;4.724;2023-05-18T18:33:34;18.20;99.90
25302;DHT22;13243;50.888;4.724;2023-05-18T18:38:36;18.00;99.90
25302;DHT22;13243;50.888;4.724;2023-05-18T18:43:38;17.80;99.90
25302;DHT22;13243;50.888;4.724;2023-05-18T18:48:40;17.80;99.90
25302;DHT22;13243;50.888;4.724;2023-05-18T18:53:42;17.70;99.90
25302;DHT22;13243;50.888;4.724;2023-05-18T18:58:44;17.50;99.90
25302;DHT22;13243;50.888;4.724;2023-05-18T19:03:46;17.30;99.90
25302;DHT22;13243;50.888;4.724;2023-05-18T19:08:48;17.20;99.90
25302;DHT22;13243;50.888;4.724;2023-05-18T19:13:52;17.00;99.90
25302;DHT22;13243;50.888;4.724;2023-05-18T19:18:54;17.00;99.90
25302;DHT22;13243;50.888;4.724;2023-05-18T19:23:56;16.70;99.90
25302;DHT22;13243;50.888;4.724;2023-05-18T19:28:59;16.50;99.90
25302;DHT22;13243;50.888;4.724;2023-05-18T19:34:01;16.20;99.90
25302;DHT22;13243;50.888;4.724;2023-05-18T19:39:03;16.00;99.90
25302;DHT22;13243;50.888;4.724;2023-05-18T19:44:05;16.00;99.90
25302;DHT22;13243;50.888;4.724;2023-05-18T19:49:09;15.80;99.90
25302;DHT22;13243;50.888;4.724;2023-05-18T19:54:11;15.70;99.90
25302;DHT22;13243;50.888;4.724;2023-05-18T19:59:13;15.50;99.90
25302;DHT22;13243;50.888;4.724;2023-05-18T20:04:14;15.40;99.90
25302;DHT22;13243;50.888;4.724;2023-05-18T20:09:17;15.30;99.90
25302;DHT22;13243;50.888;4.724;2023-05-18T20:14:18;15.20;99.90
25302;DHT22;13243;50.888;4.724;2023-05-18T20:19:22;15.00;99.90
25302;DHT22;13243;50.888;4.724;2023-05-18T20:24:24;15.00;99.90
25302;DHT22;13243;50.888;4.724;2023-05-18T20:29:26;15.00;99.90
25302;DHT22;13243;50.888;4.724;2023-05-18T20:34:29;14.90;99.90
25302;DHT22;13243;50.888;4.724;2023-05-18T20:39:31;14.70;99.90
25302;DHT22;13243;50.888;4.724;2023-05-18T20:44:33;14.60;99.90
25302;DHT22;13243;50.888;4.724;2023-05-18T20:49:35;14.60;99.90
25302;DHT22;13243;50.888;4.724;2023-05-18T20:54:37;14.40;99.90
25302;DHT22;13243;50.888;4.724;2023-05-18T20:59:39;14.10;99.90
25302;DHT22;13243;50.888;4.724;2023-05-18T21:04:41;14.20;99.90
25302;DHT22;13243;50.888;4.724;2023-05-18T21:09:43;14.20;99.90
25302;DHT22;13243;50.888;4.724;2023-05-18T21:14:45;13.90;99.90
25302;DHT22;13243;50.888;4.724;2023-05-18T21:19:48;13.80;99.90
25302;DHT22;13243;50.888;4.724;2023-05-18T21:24:57;13.80;99.90
25302;DHT22;13243;50.888;4.724;2023-05-18T21:30:00;13.80;99.90
25302;DHT22;13243;50.888;4.724;2023-05-18T21:35:03;13.70;99.90
25302;DHT22;13243;50.888;4.724;2023-05-18T21:40:05;13.90;99.90
25302;DHT22;13243;50.888;4.724;2023-05-18T21:45:08;13.70;99.90
25302;DHT22;13243;50.888;4.724;2023-05-18T21:50:10;13.60;99.90
25302;DHT22;13243;50.888;4.724;2023-05-18T21:55:12;13.40;99.90
25302;DHT22;13243;50.888;4.724;2023-05-18T22:00:14;13.50;99.90
25302;DHT22;13243;50.888;4.724;2023-05-18T22:05:18;13.50;99.90
25302;DHT22;13243;50.888;4.724;2023-05-18T22:10:20;13.30;99.90
25302;DHT22;13243;50.888;4.724;2023-05-18T22:15:22;13.20;99.90
25302;DHT22;13243;50.888;4.724;2023-05-18T22:20:24;13.10;99.90
25302;DHT22;13243;50.888;4.724;2023-05-18T22:25:26;12.90;99.90
25302;DHT22;13243;50.888;4.724;2023-05-18T22:30:28;12.70;99.90
25302;DHT22;13243;50.888;4.724;2023-05-18T22:35:30;12.60;99.90
25302;DHT22;13243;50.888;4.724;2023-05-18T22:40:32;12.50;99.90
25302;DHT22;13243;50.888;4.724;2023-05-18T22:45:35;12.30;99.90
25302;DHT22;13243;50.888;4.724;2023-05-18T22:50:37;12.20;99.90
25302;DHT22;13243;50.888;4.724;2023-05-18T22:55:39;12.10;99.90
25302;DHT22;13243;50.888;4.724;2023-05-18T23:00:41;11.90;99.90
25302;DHT22;13243;50.888;4.724;2023-05-18T23:05:43;11.80;99.90
25302;DHT22;13243;50.888;4.724;2023-05-18T23:10:46;11.70;99.90
25302;DHT22;13243;50.888;4.724;2023-05-18T23:15:48;11.60;99.90
25302;DHT22;13243;50.888;4.724;2023-05-18T23:20:50;11.50;99.90
25302;DHT22;13243;50.888;4.724;2023-05-18T23:25:56;11.60;99.90
25302;DHT22;13243;50.888;4.724;2023-05-18T23:30:58;11.50;99.90
25302;DHT22;13243;50.888;4.724;2023-05-18T23:36:02;11.40;99.90
25302;DHT22;13243;50.888;4.724;2023-05-18T23:41:06;11.30;99.90
25302;DHT22;13243;50.888;4.724;2023-05-18T23:46:08;11.30;99.90
25302;DHT22;13243;50.888;4.724;2023-05-18T23:51:14;11.20;99.90
25302;DHT22;13243;50.888;4.724;2023-05-18T23:56:21;11.10;99.90
